sensor_id;sensor_type;location;lat;lon;timestamp;pressure;altitude;pressure_sealevel;temperature;humidity
7407;BME280;3745;56.964;24.128;2023-08-24T00:01:30;101385.47;;;16.99;100.00
7407;BME280;3745;56.964;24.128;2023-08-24T00:03:56;101412.72;;;17.09;100.00
7407;BME280;3745;56.964;24.128;2023-08-24T00:06:23;101411.00;;;17.08;100.00
7407;BME280;3745;56.964;24.128;2023-08-24T00:08:48;101374.44;;;16.85;100.00
7407;BME280;3745;56.964;24.128;2023-08-24T00:11:14;101390.59;;;16.90;100.00
7407;BME280;3745;56.964;24.128;2023-08-24T00:13:43;101341.28;;;16.57;100.00
7407;BME280;3745;56.964;24.128;2023-08-24T00:16:17;101339.56;;;16.62;100.00
7407;BME280;3745;56.964;24.128;2023-08-24T00:18:43;101405.03;;;17.13;100.00
7407;BME280;3745;56.964;24.128;2023-08-24T00:21:10;101405.88;;;17.11;100.00
7407;BME280;3745;56.964;24.128;2023-08-24T00:23:36;101217.09;;;15.99;100.00
7407;BME280;3745;56.964;24.128;2023-08-24T00:26:02;101405.88;;;17.14;100.00
7407;BME280;3745;56.964;24.128;2023-08-24T00:28:27;101373.56;;;16.95;100.00
7407;BME280;3745;56.964;24.128;2023-08-24T00:30:53;101390.56;;;17.05;100.00
7407;BME280;3745;56.964;24.128;2023-08-24T00:33:19;101409.31;;;17.07;100.00
7407;BME280;3745;56.964;24.128;2023-08-24T00:35:45;101416.13;;;17.02;100.00
7407;BME280;3745;56.964;24.128;2023-08-24T00:38:10;101361.69;;;16.72;100.00
7407;BME280;3745;56.964;24.128;2023-08-24T00:40:36;101380.38;;;16.90;100.00
7407;BME280;3745;56.964;24.128;2023-08-24T00:43:04;101413.59;;;16.99;100.00
7407;BME280;3745;56.964;24.128;2023-08-24T00:45:30;101375.34;;;16.56;100.00
7407;BME280;3745;56.964;24.128;2023-08-24T00:47:57;101418.75;;;16.85;100.00
7407;BME280;3745;56.964;24.128;2023-08-24T00:50:23;101423.91;;;16.76;100.00
7407;BME280;3745;56.964;24.128;2023-08-24T00:52:49;101391.53;;;16.66;100.00
7407;BME280;3745;56.964;24.128;2023-08-24T00:55:16;101333.63;;;16.38;100.00
7407;BME280;3745;56.964;24.128;2023-08-24T00:57:42;101388.94;;;16.70;100.00
7407;BME280;3745;56.964;24.128;2023-08-24T01:00:09;101361.72;;;16.51;100.00
7407;BME280;3745;56.964;24.128;2023-08-24T01:02:38;101313.22;;;16.21;100.00
7407;BME280;3745;56.964;24.128;2023-08-24T01:05:05;101308.94;;;16.18;100.00
7407;BME280;3745;56.964;24.128;2023-08-24T01:07:37;101401.72;;;16.70;100.00
7407;BME280;3745;56.964;24.128;2023-08-24T01:10:05;101375.34;;;16.56;100.00
7407;BME280;3745;56.964;24.128;2023-08-24T01:13:07;101397.50;;;16.69;100.00
7407;BME280;3745;56.964;24.128;2023-08-24T01:15:55;101365.13;;;16.62;100.00
7407;BME280;3745;56.964;24.128;2023-08-24T01:18:23;101371.06;;;16.64;100.00
7407;BME280;3745;56.964;24.128;2023-08-24T01:20:53;101265.56;;;16.03;100.00
7407;BME280;3745;56.964;24.128;2023-08-24T01:26:19;101378.72;;;16.70;100.00
7407;BME280;3745;56.964;24.128;2023-08-24T01:28:46;101336.19;;;16.42;100.00
7407;BME280;3745;56.964;24.128;2023-08-24T01:31:16;101332.78;;;16.31;100.00
7407;BME280;3745;56.964;24.128;2023-08-24T01:33:43;101298.78;;;16.05;100.00
7407;BME280;3745;56.964;24.128;2023-08-24T01:36:10;101370.25;;;16.41;100.00
7407;BME280;3745;56.964;24.128;2023-08-24T01:38:38;101402.63;;;16.63;100.00
7407;BME280;3745;56.964;24.128;2023-08-24T01:41:17;101401.75;;;16.63;100.00
7407;BME280;3745;56.964;24.128;2023-08-24T01:43:50;101394.06;;;16.67;100.00
7407;BME280;3745;56.964;24.128;2023-08-24T01:46:17;101383.84;;;16.64;100.00
7407;BME280;3745;56.964;24.128;2023-08-24T01:48:45;101388.97;;;16.64;100.00
7407;BME280;3745;56.964;24.128;2023-08-24T01:51:11;101332.78;;;16.22;100.00
7407;BME280;3745;56.964;24.128;2023-08-24T01:53:38;101393.25;;;16.49;100.00
7407;BME280;3745;56.964;24.128;2023-08-24T01:56:15;101302.19;;;15.98;100.00
7407;BME280;3745;56.964;24.128;2023-08-24T01:58:41;101383.84;;;16.49;100.00
7407;BME280;3745;56.964;24.128;2023-08-24T02:01:08;101384.72;;;16.56;100.00
7407;BME280;3745;56.964;24.128;2023-08-24T02:03:34;101348.09;;;16.40;100.00
7407;BME280;3745;56.964;24.128;2023-08-24T02:06:00;101342.97;;;16.40;100.00
7407;BME280;3745;56.964;24.128;2023-08-24T02:08:26;101345.56;;;16.39;100.00
7407;BME280;3745;56.964;24.128;2023-08-24T02:10:52;101348.94;;;16.38;100.00
7407;BME280;3745;56.964;24.128;2023-08-24T02:13:17;101290.22;;;16.09;100.00
7407;BME280;3745;56.964;24.128;2023-08-24T02:15:43;101360.00;;;16.47;100.00
7407;BME280;3745;56.964;24.128;2023-08-24T02:18:09;101307.28;;;16.10;100.00
7407;BME280;3745;56.964;24.128;2023-08-24T02:20:35;101377.03;;;16.53;100.00
7407;BME280;3745;56.964;24.128;2023-08-24T02:23:01;101323.44;;;16.18;100.00
7407;BME280;3745;56.964;24.128;2023-08-24T02:25:27;101340.44;;;16.39;100.00
7407;BME280;3745;56.964;24.128;2023-08-24T02:27:53;101348.06;;;16.46;100.00
7407;BME280;3745;56.964;24.128;2023-08-24T02:30:19;101357.47;;;16.52;100.00
7407;BME280;3745;56.964;24.128;2023-08-24T02:32:45;101331.06;;;16.45;100.00
7407;BME280;3745;56.964;24.128;2023-08-24T02:35:10;101325.97;;;16.36;100.00
7407;BME280;3745;56.964;24.128;2023-08-24T02:37:36;101337.88;;;16.43;100.00
7407;BME280;3745;56.964;24.128;2023-08-24T02:40:02;101319.16;;;16.35;100.00
7407;BME280;3745;56.964;24.128;2023-08-24T02:42:30;101184.81;;;15.52;100.00
7407;BME280;3745;56.964;24.128;2023-08-24T02:44:57;101354.06;;;16.56;100.00
7407;BME280;3745;56.964;24.128;2023-08-24T02:47:22;101329.38;;;16.41;100.00
7407;BME280;3745;56.964;24.128;2023-08-24T02:49:48;101369.38;;;16.66;100.00
7407;BME280;3745;56.964;24.128;2023-08-24T02:52:14;101328.50;;;16.44;100.00
7407;BME280;3745;56.964;24.128;2023-08-24T02:54:39;101299.59;;;16.25;100.00
7407;BME280;3745;56.964;24.128;2023-08-24T02:57:05;101362.59;;;16.61;100.00
7407;BME280;3745;56.964;24.128;2023-08-24T02:59:31;101342.13;;;16.53;100.00
7407;BME280;3745;56.964;24.128;2023-08-24T03:01:57;101329.38;;;16.41;100.00
7407;BME280;3745;56.964;24.128;2023-08-24T03:04:23;101334.47;;;16.44;100.00
7407;BME280;3745;56.964;24.128;2023-08-24T03:06:49;101312.34;;;16.34;100.00
7407;BME280;3745;56.964;24.128;2023-08-24T03:09:15;101342.97;;;16.49;100.00
7407;BME280;3745;56.964;24.128;2023-08-24T03:11:41;101334.47;;;16.44;100.00
7407;BME280;3745;56.964;24.128;2023-08-24T03:14:07;101314.06;;;16.32;100.00
7407;BME280;3745;56.964;24.128;2023-08-24T03:16:33;101354.91;;;16.56;100.00
7407;BME280;3745;56.964;24.128;2023-08-24T03:18:58;101312.31;;;16.37;100.00
7407;BME280;3745;56.964;24.128;2023-08-24T03:21:24;101310.66;;;16.30;100.00
7407;BME280;3745;56.964;24.128;2023-08-24T03:23:50;101354.06;;;16.60;100.00
7407;BME280;3745;56.964;24.128;2023-08-24T03:26:15;101270.69;;;16.11;100.00
7407;BME280;3745;56.964;24.128;2023-08-24T03:28:42;101284.28;;;16.14;100.00
7407;BME280;3745;56.964;24.128;2023-08-24T03:31:08;101351.50;;;16.57;100.00
7407;BME280;3745;56.964;24.128;2023-08-24T03:33:34;101281.72;;;16.13;100.00
7407;BME280;3745;56.964;24.128;2023-08-24T03:36:00;101354.03;;;16.53;100.00
7407;BME280;3745;56.964;24.128;2023-08-24T03:38:27;101271.50;;;16.13;100.00
7407;BME280;3745;56.964;24.128;2023-08-24T03:41:05;101307.22;;;16.31;100.00
7407;BME280;3745;56.964;24.128;2023-08-24T03:43:35;101336.16;;;16.51;100.00
7407;BME280;3745;56.964;24.128;2023-08-24T03:46:01;101355.75;;;16.63;100.00
7407;BME280;3745;56.964;24.128;2023-08-24T03:48:27;101354.91;;;16.62;100.00
7407;BME280;3745;56.964;24.128;2023-08-24T03:50:56;101366.81;;;16.72;100.00
7407;BME280;3745;56.964;24.128;2023-08-24T03:53:23;101364.22;;;16.78;100.00
7407;BME280;3745;56.964;24.128;2023-08-24T03:55:49;101327.63;;;16.52;100.00
7407;BME280;3745;56.964;24.128;2023-08-24T03:58:15;101332.75;;;16.58;100.00
7407;BME280;3745;56.964;24.128;2023-08-24T04:00:41;101322.50;;;16.52;100.00
7407;BME280;3745;56.964;24.128;2023-08-24T04:03:07;101366.78;;;16.78;100.00
7407;BME280;3745;56.964;24.128;2023-08-24T04:05:33;101343.84;;;16.54;100.00
7407;BME280;3745;56.964;24.128;2023-08-24T04:08:00;101343.81;;;16.59;100.00
7407;BME280;3745;56.964;24.128;2023-08-24T04:10:30;101334.47;;;16.44;100.00
7407;BME280;3745;56.964;24.128;2023-08-24T04:12:56;101366.81;;;16.66;100.00
7407;BME280;3745;56.964;24.128;2023-08-24T04:15:21;101312.34;;;16.31;100.00
7407;BME280;3745;56.964;24.128;2023-08-24T04:17:48;101365.13;;;16.62;100.00
7407;BME280;3745;56.964;24.128;2023-08-24T04:20:14;101307.25;;;16.25;100.00
7407;BME280;3745;56.964;24.128;2023-08-24T04:22:41;101271.53;;;15.95;100.00
7407;BME280;3745;56.964;24.128;2023-08-24T04:25:08;101361.72;;;16.63;100.00
7407;BME280;3745;56.964;24.128;2023-08-24T04:27:34;101360.84;;;16.64;100.00
7407;BME280;3745;56.964;24.128;2023-08-24T04:29:59;101344.69;;;16.44;100.00
7407;BME280;3745;56.964;24.128;2023-08-24T04:32:27;101307.25;;;16.19;100.00
7407;BME280;3745;56.964;24.128;2023-08-24T04:34:53;101300.47;;;16.21;100.00
7407;BME280;3745;56.964;24.128;2023-08-24T04:37:18;101286.81;;;16.19;100.00
7407;BME280;3745;56.964;24.128;2023-08-24T04:39:44;101361.69;;;16.69;100.00
7407;BME280;3745;56.964;24.128;2023-08-24T04:42:10;101364.25;;;16.75;100.00
7407;BME280;3745;56.964;24.128;2023-08-24T04:44:35;101366.78;;;16.78;100.00
7407;BME280;3745;56.964;24.128;2023-08-24T04:47:01;101337.84;;;16.64;100.00
7407;BME280;3745;56.964;24.128;2023-08-24T04:49:26;101341.25;;;16.75;100.00
7407;BME280;3745;56.964;24.128;2023-08-24T04:51:53;101313.16;;;16.60;100.00
7407;BME280;3745;56.964;24.128;2023-08-24T04:54:19;101351.44;;;16.85;100.00
7407;BME280;3745;56.964;24.128;2023-08-24T04:56:44;101305.50;;;16.63;100.00
7407;BME280;3745;56.964;24.128;2023-08-24T04:59:10;101337.78;;;16.89;100.00
7407;BME280;3745;56.964;24.128;2023-08-24T05:01:36;101315.69;;;16.75;100.00
7407;BME280;3745;56.964;24.128;2023-08-24T05:04:02;101317.34;;;16.89;100.00
7407;BME280;3745;56.964;24.128;2023-08-24T05:06:28;101318.97;;;16.99;100.00
7407;BME280;3745;56.964;24.128;2023-08-24T05:08:54;101344.50;;;17.11;100.00
7407;BME280;3745;56.964;24.128;2023-08-24T05:11:22;101260.34;;;16.64;100.00
7407;BME280;3745;56.964;24.128;2023-08-24T05:13:49;101342.75;;;17.22;100.00
7407;BME280;3745;56.964;24.128;2023-08-24T05:16:15;101337.66;;;17.16;100.00
7407;BME280;3745;56.964;24.128;2023-08-24T05:18:41;101306.22;;;16.97;100.00
7407;BME280;3745;56.964;24.128;2023-08-24T05:21:07;101274.75;;;16.82;100.00
7407;BME280;3745;56.964;24.128;2023-08-24T05:23:33;101285.78;;;16.87;100.00
7407;BME280;3745;56.964;24.128;2023-08-24T05:26:01;101325.75;;;17.09;100.00
7407;BME280;3745;56.964;24.128;2023-08-24T05:28:28;101269.66;;;16.75;100.00
7407;BME280;3745;56.964;24.128;2023-08-24T05:30:54;101327.41;;;17.19;100.00
7407;BME280;3745;56.964;24.128;2023-08-24T05:35:49;101325.66;;;17.24;100.00
7407;BME280;3745;56.964;24.128;2023-08-24T05:38:15;101328.22;;;17.28;100.00
7407;BME280;3745;56.964;24.128;2023-08-24T05:40:41;101323.88;;;17.35;100.00
7407;BME280;3745;56.964;24.128;2023-08-24T05:43:11;101295.81;;;17.24;100.00
7407;BME280;3745;56.964;24.128;2023-08-24T05:45:36;101306.84;;;17.34;100.00
7407;BME280;3745;56.964;24.128;2023-08-24T05:48:04;101325.50;;;17.51;100.00
7407;BME280;3745;56.964;24.128;2023-08-24T05:50:30;101317.00;;;17.49;100.00
7407;BME280;3745;56.964;24.128;2023-08-24T05:52:56;101276.16;;;17.34;100.00
7407;BME280;3745;56.964;24.128;2023-08-24T05:55:22;101216.69;;;16.96;100.00
7407;BME280;3745;56.964;24.128;2023-08-24T05:57:48;101254.06;;;17.21;100.00
7407;BME280;3745;56.964;24.128;2023-08-24T06:00:14;101317.81;;;17.53;100.00
7407;BME280;3745;56.964;24.128;2023-08-24T06:02:40;101194.66;;;16.76;100.00
7407;BME280;3745;56.964;24.128;2023-08-24T06:05:06;101332.34;;;17.55;100.00
7407;BME280;3745;56.964;24.128;2023-08-24T06:07:33;101131.81;;;16.39;100.00
7407;BME280;3745;56.964;24.128;2023-08-24T06:09:59;101165.81;;;16.56;100.00
7407;BME280;3745;56.964;24.128;2023-08-24T06:12:25;101325.53;;;17.45;100.00
7407;BME280;3745;56.964;24.128;2023-08-24T06:14:51;101166.66;;;16.51;100.00
7407;BME280;3745;56.964;24.128;2023-08-24T06:17:16;101141.16;;;16.42;100.00
7407;BME280;3745;56.964;24.128;2023-08-24T06:19:42;101236.34;;;16.91;100.00
7407;BME280;3745;56.964;24.128;2023-08-24T06:22:08;101262.63;;;17.14;100.00
7407;BME280;3745;56.964;24.128;2023-08-24T06:24:34;101340.84;;;17.57;100.00
7407;BME280;3745;56.964;24.128;2023-08-24T06:27:00;101340.84;;;17.57;100.00
7407;BME280;3745;56.964;24.128;2023-08-24T06:29:28;101259.28;;;17.06;100.00
7407;BME280;3745;56.964;24.128;2023-08-24T06:31:54;101306.00;;;17.33;100.00
7407;BME280;3745;56.964;24.128;2023-08-24T06:34:20;101152.22;;;16.45;100.00
7407;BME280;3745;56.964;24.128;2023-08-24T06:36:45;101266.91;;;17.13;100.00
7407;BME280;3745;56.964;24.128;2023-08-24T06:39:12;101251.59;;;17.01;100.00
7407;BME280;3745;56.964;24.128;2023-08-24T06:41:38;101137.00;;;16.24;100.00
7407;BME280;3745;56.964;24.128;2023-08-24T06:44:04;101143.69;;;16.40;100.00
7407;BME280;3745;56.964;24.128;2023-08-24T06:46:30;101271.13;;;17.19;100.00
7407;BME280;3745;56.964;24.128;2023-08-24T06:48:55;101218.44;;;16.94;100.00
7407;BME280;3745;56.964;24.128;2023-08-24T06:51:21;101271.09;;;17.25;100.00
7407;BME280;3745;56.964;24.128;2023-08-24T06:53:46;101277.84;;;17.32;100.00
7407;BME280;3745;56.964;24.128;2023-08-24T06:56:14;101137.72;;;16.49;100.00
7407;BME280;3745;56.964;24.128;2023-08-24T06:58:43;101268.28;;;17.63;100.00
7407;BME280;3745;56.964;24.128;2023-08-24T07:01:08;101264.03;;;17.60;100.00
7407;BME280;3745;56.964;24.128;2023-08-24T07:03:44;101213.03;;;17.33;100.00
7407;BME280;3745;56.964;24.128;2023-08-24T07:09:45;101131.34;;;17.12;100.00
7407;BME280;3745;56.964;24.128;2023-08-24T07:12:20;101193.84;;;17.82;100.00
7407;BME280;3745;56.964;24.128;2023-08-24T07:14:51;101315.91;;;18.70;100.00
7407;BME280;3745;56.964;24.128;2023-08-24T07:17:20;101308.81;;;18.93;100.00
7407;BME280;3745;56.964;24.128;2023-08-24T07:19:49;101183.97;;;18.25;100.00
7407;BME280;3745;56.964;24.128;2023-08-24T07:22:20;101281.28;;;19.05;100.00
7407;BME280;3745;56.964;24.128;2023-08-24T07:24:46;101092.94;;;17.99;100.00
7407;BME280;3745;56.964;24.128;2023-08-24T07:27:13;101097.97;;;18.08;100.00
7407;BME280;3745;56.964;24.128;2023-08-24T07:29:38;101179.22;;;18.65;100.00
7407;BME280;3745;56.964;24.128;2023-08-24T07:32:04;101268.25;;;19.18;100.00
7407;BME280;3745;56.964;24.128;2023-08-24T07:34:30;101288.06;;;19.09;100.00
7407;BME280;3745;56.964;24.128;2023-08-24T07:36:55;101298.38;;;19.06;100.00
7407;BME280;3745;56.964;24.128;2023-08-24T07:39:21;101273.63;;;19.02;100.00
7407;BME280;3745;56.964;24.128;2023-08-24T07:41:46;101174.47;;;18.35;100.00
7407;BME280;3745;56.964;24.128;2023-08-24T07:44:12;101223.72;;;18.61;100.00
7407;BME280;3745;56.964;24.128;2023-08-24T07:46:40;101107.78;;;17.71;100.00
7407;BME280;3745;56.964;24.128;2023-08-24T07:49:06;101123.75;;;17.93;100.00
7407;BME280;3745;56.964;24.128;2023-08-24T07:51:35;101165.38;;;18.10;100.00
7407;BME280;3745;56.964;24.128;2023-08-24T07:54:04;101234.06;;;18.55;100.00
7407;BME280;3745;56.964;24.128;2023-08-24T07:56:32;101112.78;;;17.83;100.00
7407;BME280;3745;56.964;24.128;2023-08-24T07:59:01;101130.41;;;18.09;100.00
7407;BME280;3745;56.964;24.128;2023-08-24T08:01:27;101177.56;;;18.61;100.00
7407;BME280;3745;56.964;24.128;2023-08-24T08:03:53;101163.72;;;18.74;100.00
7407;BME280;3745;56.964;24.128;2023-08-24T08:06:19;101119.56;;;18.54;100.00
7407;BME280;3745;56.964;24.128;2023-08-24T08:08:47;101129.78;;;18.57;100.00
7407;BME280;3745;56.964;24.128;2023-08-24T08:11:12;101096.81;;;18.30;100.00
7407;BME280;3745;56.964;24.128;2023-08-24T08:13:40;101219.59;;;19.11;100.00
7407;BME280;3745;56.964;24.128;2023-08-24T08:16:17;101080.41;;;18.40;100.00
7407;BME280;3745;56.964;24.128;2023-08-24T08:18:46;101092.41;;;18.38;100.00
7407;BME280;3745;56.964;24.128;2023-08-24T08:21:16;101168.38;;;19.05;100.00
7407;BME280;3745;56.964;24.128;2023-08-24T08:24:04;101282.03;;;19.69;100.00
7407;BME280;3745;56.964;24.128;2023-08-24T08:26:30;101198.78;;;19.29;100.00
7407;BME280;3745;56.964;24.128;2023-08-24T08:28:56;101157.28;;;19.04;100.00
7407;BME280;3745;56.964;24.128;2023-08-24T08:31:37;101083.53;;;18.63;100.00
7407;BME280;3745;56.964;24.128;2023-08-24T08:34:11;101201.00;;;19.53;100.00
7407;BME280;3745;56.964;24.128;2023-08-24T08:36:37;101241.19;;;19.54;100.00
7407;BME280;3745;56.964;24.128;2023-08-24T08:39:05;101190.47;;;19.15;100.00
7407;BME280;3745;56.964;24.128;2023-08-24T08:42:02;101199.69;;;19.28;100.00
7407;BME280;3745;56.964;24.128;2023-08-24T08:44:33;101275.06;;;19.77;100.00
7407;BME280;3745;56.964;24.128;2023-08-24T08:47:14;101112.03;;;18.99;100.00
7407;BME280;3745;56.964;24.128;2023-08-24T08:49:46;101152.38;;;19.44;100.00
7407;BME280;3745;56.964;24.128;2023-08-24T08:52:16;101194.59;;;19.75;100.00
7407;BME280;3745;56.964;24.128;2023-08-24T08:55:05;101153.50;;;19.75;100.00
7407;BME280;3745;56.964;24.128;2023-08-24T08:57:51;101156.63;;;19.92;100.00
7407;BME280;3745;56.964;24.128;2023-08-24T09:00:19;101076.69;;;19.63;100.00
7407;BME280;3745;56.964;24.128;2023-08-24T09:02:47;101129.97;;;19.96;100.00
7407;BME280;3745;56.964;24.128;2023-08-24T09:05:14;101153.22;;;19.90;100.00
7407;BME280;3745;56.964;24.128;2023-08-24T09:07:41;101204.09;;;20.18;100.00
7407;BME280;3745;56.964;24.128;2023-08-24T09:10:09;101088.53;;;19.70;100.00
7407;BME280;3745;56.964;24.128;2023-08-24T09:12:35;101070.50;;;19.75;100.00
7407;BME280;3745;56.964;24.128;2023-08-24T09:15:05;101166.88;;;20.37;100.00
7407;BME280;3745;56.964;24.128;2023-08-24T09:17:33;101266.09;;;20.88;100.00
7407;BME280;3745;56.964;24.128;2023-08-24T09:20:02;101264.34;;;20.90;100.00
7407;BME280;3745;56.964;24.128;2023-08-24T09:22:36;101263.09;;;20.68;100.00
7407;BME280;3745;56.964;24.128;2023-08-24T09:25:03;101271.44;;;20.79;100.00
7407;BME280;3745;56.964;24.128;2023-08-24T09:27:34;101258.47;;;20.84;100.00
7407;BME280;3745;56.964;24.128;2023-08-24T09:30:00;101180.91;;;20.62;100.00
7407;BME280;3745;56.964;24.128;2023-08-24T09:32:30;101248.16;;;21.24;100.00
7407;BME280;3745;56.964;24.128;2023-08-24T09:35:10;101076.94;;;20.34;100.00
7407;BME280;3745;56.964;24.128;2023-08-24T09:37:36;101142.28;;;21.00;100.00
7407;BME280;3745;56.964;24.128;2023-08-24T09:40:06;101170.38;;;21.45;100.00
7407;BME280;3745;56.964;24.128;2023-08-24T09:42:40;101158.66;;;21.33;100.00
7407;BME280;3745;56.964;24.128;2023-08-24T09:45:08;101159.53;;;21.32;100.00
7407;BME280;3745;56.964;24.128;2023-08-24T09:47:36;101211.13;;;21.63;100.00
7407;BME280;3745;56.964;24.128;2023-08-24T09:50:02;101208.97;;;21.80;100.00
7407;BME280;3745;56.964;24.128;2023-08-24T09:52:34;101139.53;;;21.42;100.00
7407;BME280;3745;56.964;24.128;2023-08-24T09:55:04;101111.56;;;20.94;100.00
7407;BME280;3745;56.964;24.128;2023-08-24T09:57:38;101226.88;;;21.51;100.00
7407;BME280;3745;56.964;24.128;2023-08-24T10:00:08;101172.91;;;21.13;100.00
7407;BME280;3745;56.964;24.128;2023-08-24T10:02:52;101103.06;;;20.89;100.00
7407;BME280;3745;56.964;24.128;2023-08-24T10:05:26;101131.41;;;21.25;100.00
7407;BME280;3745;56.964;24.128;2023-08-24T10:11:24;101042.16;;;20.56;100.00
7407;BME280;3745;56.964;24.128;2023-08-24T10:14:24;101223.44;;;21.52;100.00
7407;BME280;3745;56.964;24.128;2023-08-24T10:17:06;101233.50;;;21.61;100.00
7407;BME280;3745;56.964;24.128;2023-08-24T10:19:34;101036.22;;;20.52;100.00
7407;BME280;3745;56.964;24.128;2023-08-24T10:22:02;101224.75;;;21.68;100.00
7407;BME280;3745;56.964;24.128;2023-08-24T10:24:29;101094.34;;;20.96;100.00
7407;BME280;3745;56.964;24.128;2023-08-24T10:26:55;101080.97;;;20.82;100.00
7407;BME280;3745;56.964;24.128;2023-08-24T10:29:33;101157.94;;;21.28;100.00
7407;BME280;3745;56.964;24.128;2023-08-24T10:35:52;101150.38;;;21.21;100.00
7407;BME280;3745;56.964;24.128;2023-08-24T10:38:55;101229.75;;;21.74;100.00
7407;BME280;3745;56.964;24.128;2023-08-24T10:41:48;101099.72;;;20.87;100.00
7407;BME280;3745;56.964;24.128;2023-08-24T10:44:33;101191.44;;;21.27;100.00
7407;BME280;3745;56.964;24.128;2023-08-24T10:47:08;101095.38;;;20.54;100.00
7407;BME280;3745;56.964;24.128;2023-08-24T10:49:37;101203.81;;;21.13;100.00
7407;BME280;3745;56.964;24.128;2023-08-24T10:52:23;101198.28;;;20.91;100.00
7407;BME280;3745;56.964;24.128;2023-08-24T10:54:53;101245.09;;;21.06;100.00
7407;BME280;3745;56.964;24.128;2023-08-24T10:57:22;101220.19;;;20.70;100.00
7407;BME280;3745;56.964;24.128;2023-08-24T11:02:49;101245.16;;;20.21;100.00
7407;BME280;3745;56.964;24.128;2023-08-24T11:41:39;101272.50;;;20.25;100.00
7407;BME280;3745;56.964;24.128;2023-08-24T11:47:26;101297.38;;;20.70;100.00
7407;BME280;3745;56.964;24.128;2023-08-24T11:53:26;101107.56;;;19.60;100.00
7407;BME280;3745;56.964;24.128;2023-08-24T11:55:55;101160.16;;;19.87;100.00
7407;BME280;3745;56.964;24.128;2023-08-24T11:58:47;101284.97;;;20.46;100.00
7407;BME280;3745;56.964;24.128;2023-08-24T12:08:02;101296.94;;;19.99;100.00
7407;BME280;3745;56.964;24.128;2023-08-24T12:10:28;101274.56;;;19.56;100.00
7407;BME280;3745;56.964;24.128;2023-08-24T12:13:06;101301.25;;;19.47;100.00
7407;BME280;3745;56.964;24.128;2023-08-24T12:15:35;101329.66;;;19.33;100.00
7407;BME280;3745;56.964;24.128;2023-08-24T12:18:14;101324.84;;;19.09;100.00
7407;BME280;3745;56.964;24.128;2023-08-24T12:20:40;101331.72;;;19.06;100.00
7407;BME280;3745;56.964;24.128;2023-08-24T12:23:07;101236.69;;;18.51;100.00
7407;BME280;3745;56.964;24.128;2023-08-24T12:25:45;101250.06;;;18.75;100.00
7407;BME280;3745;56.964;24.128;2023-08-24T12:28:13;101138.78;;;18.20;100.00
7407;BME280;3745;56.964;24.128;2023-08-24T12:30:48;101311.91;;;19.17;100.00
7407;BME280;3745;56.964;24.128;2023-08-24T12:33:22;101088.78;;;17.88;100.00
7407;BME280;3745;56.964;24.128;2023-08-24T12:35:50;101321.94;;;19.32;100.00
7407;BME280;3745;56.964;24.128;2023-08-24T12:38:16;101249.00;;;18.91;100.00
7407;BME280;3745;56.964;24.128;2023-08-24T12:40:41;101102.91;;;18.20;100.00
7407;BME280;3745;56.964;24.128;2023-08-24T12:43:07;101275.88;;;19.23;100.00
7407;BME280;3745;56.964;24.128;2023-08-24T12:45:34;101123.19;;;18.38;100.00
7407;BME280;3745;56.964;24.128;2023-08-24T12:47:59;101120.47;;;18.47;100.00
7407;BME280;3745;56.964;24.128;2023-08-24T12:50:25;101100.81;;;18.49;100.00
7407;BME280;3745;56.964;24.128;2023-08-24T12:52:51;101160.28;;;18.75;100.00
7407;BME280;3745;56.964;24.128;2023-08-24T12:55:23;101299.16;;;19.70;100.00
7407;BME280;3745;56.964;24.128;2023-08-24T12:57:48;101295.72;;;19.71;100.00
7407;BME280;3745;56.964;24.128;2023-08-24T13:00:14;101211.72;;;19.23;100.00
7407;BME280;3745;56.964;24.128;2023-08-24T13:02:43;101154.88;;;18.93;100.00
7407;BME280;3745;56.964;24.128;2023-08-24T13:05:09;101131.31;;;18.67;100.00
7407;BME280;3745;56.964;24.128;2023-08-24T13:07:34;101095.66;;;18.52;100.00
7407;BME280;3745;56.964;24.128;2023-08-24T13:10:20;101269.13;;;19.74;100.00
7407;BME280;3745;56.964;24.128;2023-08-24T13:12:46;101262.03;;;19.89;100.00
7407;BME280;3745;56.964;24.128;2023-08-24T13:15:14;101057.75;;;18.72;100.00
7407;BME280;3745;56.964;24.128;2023-08-24T13:17:40;101059.25;;;18.85;100.00
7407;BME280;3745;56.964;24.128;2023-08-24T13:20:30;101015.03;;;18.71;100.00
7407;BME280;3745;56.964;24.128;2023-08-24T13:22:58;101019.78;;;18.92;100.00
7407;BME280;3745;56.964;24.128;2023-08-24T13:25:24;101147.50;;;19.78;100.00
7407;BME280;3745;56.964;24.128;2023-08-24T13:27:49;101017.91;;;19.04;100.00
7407;BME280;3745;56.964;24.128;2023-08-24T13:30:15;101049.22;;;19.22;100.00
7407;BME280;3745;56.964;24.128;2023-08-24T13:32:41;101231.38;;;20.26;100.00
7407;BME280;3745;56.964;24.128;2023-08-24T13:35:09;101075.44;;;19.38;100.00
7407;BME280;3745;56.964;24.128;2023-08-24T13:37:37;101031.88;;;18.87;100.00
7407;BME280;3745;56.964;24.128;2023-08-24T13:40:41;101225.38;;;19.78;100.00
7407;BME280;3745;56.964;24.128;2023-08-24T13:43:12;101160.63;;;19.61;100.00
7407;BME280;3745;56.964;24.128;2023-08-24T13:45:49;101150.06;;;19.76;100.00
7407;BME280;3745;56.964;24.128;2023-08-24T13:48:17;101138.75;;;19.86;100.00
7407;BME280;3745;56.964;24.128;2023-08-24T13:50:51;101138.88;;;20.22;100.00
7407;BME280;3745;56.964;24.128;2023-08-24T13:53:28;101111.63;;;20.15;100.00
7407;BME280;3745;56.964;24.128;2023-08-24T13:55:53;101191.69;;;20.39;100.00
7407;BME280;3745;56.964;24.128;2023-08-24T13:58:22;101197.25;;;20.17;100.00
7407;BME280;3745;56.964;24.128;2023-08-24T14:00:54;101201.81;;;20.47;100.00
7407;BME280;3745;56.964;24.128;2023-08-24T14:03:19;101026.69;;;19.36;100.00
7407;BME280;3745;56.964;24.128;2023-08-24T14:05:45;101142.75;;;19.99;100.00
7407;BME280;3745;56.964;24.128;2023-08-24T14:08:12;101059.13;;;19.43;100.00